Flight Track Log - Related Links

Times and Time Zones

All times are in EST time to prevent confusion due to time zone crossing. See the N83WD flight status page for this flight to view local times or setup timezone preferences in your user account.

Time Position Orientation Groundspeed Altitude Reporting Facility
EST Latitude Longitude Course Direction KTS MPH feet Rate Location/Type
Thu 04:53:20 PM 32.7000 -97.0500 180° South 109 125 600  Level Dallas / Fort Worth TRACON
Thu 04:53:38 PM 32.6833 -97.0500 180° South 108 124 1,000 1,135 Climbing Dallas / Fort Worth TRACON
Thu 04:55:11 PM 32.6328 -97.0686 197° South 127 146 2,700 1,006 Climbing Fort Worth Center
Thu 04:56:13 PM 32.6003 -97.0689 180° South 133 153 3,600 528 Climbing Fort Worth Center
Thu 04:57:16 PM 32.6033 -97.0103 86° East 181 208 3,800 144 Climbing Fort Worth Center
Thu 04:58:18 PM 32.6083 -96.9422 85° East 191 220 3,900 48 Climbing Fort Worth Center
Thu 04:59:22 PM 32.6111 -96.8736 87° East 194 223 3,900  Level Fort Worth Center
Thu 05:00:24 PM 32.6075 -96.8067 94° East 197 227 3,900  Level Fort Worth Center
Thu 05:01:26 PM 32.6069 -96.7411 91° East 198 228 3,900  Level Fort Worth Center
Thu 05:02:29 PM 32.6064 -96.6747 91° East 202 232 3,900  Level Fort Worth Center
Thu 05:03:31 PM 32.6047 -96.6050 92° East 197 227 3,900  Level Fort Worth Center
Thu 05:04:33 PM 32.6039 -96.5414 91° East 194 223 3,900  Level Fort Worth Center
Thu 05:05:35 PM 32.6036 -96.4706 90° East 199 229 3,900  Level Fort Worth Center
Thu 05:06:37 PM 32.6014 -96.4056 92° East 198 228 3,900 97 Level Fort Worth Center
Thu 05:07:39 PM 32.6025 -96.3361 89° East 195 224 4,100 726 Climbing Fort Worth Center
Thu 05:08:41 PM 32.6033 -96.2758 89° East 185 213 5,400 1,161 Climbing Fort Worth Center
Thu 05:09:43 PM 32.5983 -96.2167 96° East 170 196 6,500 1,065 Climbing Fort Worth Center
Thu 05:10:45 PM 32.5964 -96.1589 92° East 173 199 7,600 1,104 Climbing Fort Worth Center
Thu 05:11:48 PM 32.5981 -96.0931 88° East 185 213 8,800 1,008 Climbing Fort Worth Center
Thu 05:12:50 PM 32.5953 -96.0317 93° East 187 215 9,700 484 Climbing Fort Worth Center
Thu 05:13:52 PM 32.5947 -95.9608 91° East 215 247 9,800 581 Climbing Fort Worth Center
Thu 05:14:54 PM 32.5942 -95.8828 90° East 217 250 10,900 1,016 Climbing Fort Worth Center
Thu 05:15:56 PM 32.5942 -95.8153 90° East 207 238 11,900 968 Climbing Fort Worth Center
Thu 05:16:58 PM 32.5936 -95.7411 90° East 208 239 12,900 484 Climbing Fort Worth Center
Thu 05:18:00 PM 32.5900 -95.6686 93° East 219 252 12,900  Level Fort Worth Center
Thu 05:19:02 PM 32.5883 -95.5922 91° East 230 265 12,900  Level Fort Worth Center
Thu 05:20:04 PM 32.5861 -95.5167 92° East 230 265 12,900  Level Fort Worth Center
Thu 05:21:07 PM 32.5864 -95.4403 90° East 231 266 12,900  Level Fort Worth Center
Thu 05:22:09 PM 32.5839 -95.3650 92° East 230 265 12,900 97 Level Fort Worth Center
Thu 05:23:11 PM 32.5839 -95.2842 90° East 231 266 13,100 97 Climbing Fort Worth Center
Thu 05:24:13 PM 32.5803 -95.2072 93° East 234 269 13,100 -48 Level Fort Worth Center
Thu 05:25:15 PM 32.5789 -95.1150 91° East 234 269 13,000 -48 Descending Fort Worth Center
Thu 05:26:17 PM 32.5767 -95.0386 92° East 234 269 13,000  Level Fort Worth Center
Thu 05:27:19 PM 32.5753 -94.9617 91° East 234 269 13,000 48 Level Fort Worth Center
Thu 05:28:21 PM 32.5733 -94.8861 92° East 230 265 13,100  Climbing Fort Worth Center
Thu 05:29:23 PM 32.5708 -94.8086 92° East 234 269 13,000 -48 Descending Fort Worth Center
Thu 05:30:25 PM 32.5686 -94.7311 92° East 235 270 13,000  Level Fort Worth Center
Thu 05:31:28 PM 32.5667 -94.6364 91° East 238 274 13,000 79 Level Fort Worth Center
Thu 05:31:41 PM 32.5644 -94.6206 99° East 232 267 13,100  Climbing Fort Worth Center
Thu 05:32:11 PM 32.5628 -94.5861 93° East 232 267 13,000 -122 Descending Fort Worth Center
Thu 05:32:30 PM 32.5656 -94.5600 83° East 234 269 13,000 -197 Level Fort Worth Center
Thu 05:33:12 PM 32.5608 -94.5097 96° East 233 268 12,800 -581 Descending Fort Worth Center
Thu 05:33:32 PM 32.5611 -94.4753 89° East 240 276 12,400 -1,111 Descending Fort Worth Center
Thu 05:34:06 PM 32.5589 -94.4308 93° East 257 296 11,800 -1,161 Descending Fort Worth Center
Thu 05:34:34 PM 32.5589 -94.3881 90° East 263 303 11,200 -1,279 Descending Fort Worth Center
Thu 05:35:07 PM 32.5561 -94.3422 94° East 269 310 10,500 -1,355 Descending Fort Worth Center
Thu 05:35:36 PM 32.5569 -94.2936 89° East 267 307 9,800 -1,343 Descending Fort Worth Center
Thu 05:36:14 PM 32.5547 -94.2408 93° East 268 308 9,000 -1,355 Descending Fort Worth Center
Thu 05:36:38 PM 32.5539 -94.2064 92° East 266 306 8,400 -1,778 Descending Fort Worth Center
Thu 05:37:08 PM 32.5506 -94.1622 95° East 265 305 7,400 -1,742 Descending Fort Worth Center
Thu 05:37:40 PM 32.5517 -94.1128 88° East 265 305 6,600 -1,279 Descending Fort Worth Center
Thu 05:38:09 PM 32.5519 -94.0756 89° East 260 299 6,100 -1,161 Descending Fort Worth Center
Thu 05:38:42 PM 32.5503 -94.0308 93° East 250 288 5,400 -1,180 Descending Fort Worth Center
Thu 05:39:10 PM 32.5456 -93.9972 99° East 242 278 4,900 -1,258 Descending Fort Worth Center
Thu 05:39:44 PM 32.5481 -93.9469 87° East 240 276 4,100 -1,300 Descending Fort Worth Center
Thu 05:40:10 PM 32.5453 -93.9206 97° East 227 261 3,600 -1,333 Descending Fort Worth Center
Thu 05:40:47 PM 32.5500 -93.8739 83° East 228 262 2,700 -1,452 Descending Fort Worth Center
Thu 05:41:12 PM 32.5578 -93.8481 70° East 231 266 2,100 -581 Descending Fort Worth Center
Thu 05:41:49 PM 32.5756 -93.8108 60° Northeast 213 245 2,100 -300 Level Fort Worth Center
Thu 05:42:12 PM 32.5822 -93.7967 61° Northeast 158 182 1,800 -1,355 Descending Fort Worth Center
Thu 05:42:51 PM 32.5692 -93.7717 122° Southeast 129 148 700 -1,300 Descending Fort Worth Center
Thu 05:43:12 PM 32.5594 -93.7664 155° Southeast 99 114 500 -387 Descending Fort Worth Center
Thu 05:43:53 PM 32.5492 -93.7533 133° Southeast 112 129 300 -293 Descending Fort Worth Center
Thu 05:45:00 PM 32.5402 -93.7450 90° East  Level Estimated
Thu 05:52:00 PM 32.5402 -93.7450 90° East  Level Estimated

Login

Don't have an account? Register now (free) for customized features, flight alerts, and more!